sensor_id;sensor_type;location;lat;lon;timestamp;pressure;altitude;pressure_sealevel;temperature;humidity
61740;BME280;47645;45.288;12.038;2023-06-10T00:04:46;1011.0850595520512;;;20.0857421875;100
61740;BME280;47645;45.288;12.038;2023-06-10T00:14:48;1010.932034412638;;;20.151953125;100
61740;BME280;47645;45.288;12.038;2023-06-10T00:24:48;1010.8512292473113;;;20.6361328125;95.89285067576535
61740;BME280;47645;45.288;12.038;2023-06-10T00:34:49;1010.9414543521802;;;20.4375;99.7857550677374
61740;BME280;47645;45.288;12.038;2023-06-10T00:44:51;1011.0395111060498;;;20.794140625;92.55863211066523
61740;BME280;47645;45.288;12.038;2023-06-10T00:54:52;1010.8861328541202;;;20.9166015625;92.02969179491924
61740;BME280;47645;45.288;12.038;2023-06-10T01:04:53;1010.678303070189;;;20.671875;100
61740;BME280;47645;45.288;12.038;2023-06-10T01:14:55;1010.5494490922081;;;20.5138671875;98.8649631208044
61740;BME280;47645;45.288;12.038;2023-06-10T01:24:58;1010.5251744036972;;;20.3916015625;94.65411866266014
61740;BME280;47645;45.288;12.038;2023-06-10T01:34:57;1010.5856544769723;;;20.4884765625;95.60318721115404
61740;BME280;47645;45.288;12.038;2023-06-10T01:44:58;1010.6205431489599;;;20.6259765625;94.94035976957458
61740;BME280;47645;45.288;12.038;2023-06-10T01:55:00;1010.9245084868729;;;20.366015625;97.63290510318815
61740;BME280;47645;45.288;12.038;2023-06-10T02:05:01;1010.9105967497771;;;20.46796875;91.96101175259375
61740;BME280;47645;45.288;12.038;2023-06-10T02:15:03;1010.9997062378937;;;20.7330078125;94.32160879599844
61740;BME280;47645;45.288;12.038;2023-06-10T02:25:05;1011.1070196539184;;;20.6056640625;93.6798442543876
61740;BME280;47645;45.288;12.038;2023-06-10T02:30:06;1010.9231059649874;;;20.6515625;92.84781999264376
61740;BME280;47645;45.288;12.038;2023-06-10T02:40:08;1010.7783927807085;;;20.452734375;93.44543289088048
61740;BME280;47645;45.288;12.038;2023-06-10T02:50:08;1010.848341780368;;;20.4220703125;90.71774388400668
61740;BME280;47645;45.288;12.038;2023-06-10T03:00:11;1010.8912494128143;;;20.671875;91.62330034038199
61740;BME280;47645;45.288;12.038;2023-06-10T03:10:10;1010.7737596174701;;;20.4322265625;89.54667751246683
61740;BME280;47645;45.288;12.038;2023-06-10T03:20:12;1010.899947635422;;;20.478125;88.84490688741298
61740;BME280;47645;45.288;12.038;2023-06-10T03:30:13;1010.8847080268301;;;20.4986328125;90.97537897228584
61740;BME280;47645;45.288;12.038;2023-06-10T03:40:13;1010.8393293928211;;;20.2998046875;95.2929442335847
61740;BME280;47645;45.288;12.038;2023-06-10T03:50:14;1010.7946782264729;;;20.2080078125;94.78341604325446
61740;BME280;47645;45.288;12.038;2023-06-10T04:00:16;1010.8097204972925;;;20.7330078125;88.71317941936276
61740;BME280;47645;45.288;12.038;2023-06-10T04:10:18;1010.8049547675467;;;20.549609375;88.53571616972722
61740;BME280;47645;45.288;12.038;2023-06-10T04:20:18;1010.8184308601641;;;20.5087890625;92.33840303495053
61740;BME280;47645;45.288;12.038;2023-06-10T04:30:20;1010.8181962189847;;;20.549609375;88.51928469169329
61740;BME280;47645;45.288;12.038;2023-06-10T04:40:20;1010.7882457199805;;;20.753515625;86.99989970625698
61740;BME280;47645;45.288;12.038;2023-06-10T04:50:21;1010.7696534127135;;;20.85546875;87.00444692568038
61740;BME280;47645;45.288;12.038;2023-06-10T05:00:23;1010.8283597663146;;;20.9828125;87.81154945381063
61740;BME280;47645;45.288;12.038;2023-06-10T05:10:24;1010.795105225691;;;21.1205078125;92.83542995660528
61740;BME280;47645;45.288;12.038;2023-06-10T05:20:26;1010.8085530841208;;;21.0083984375;100
61740;BME280;47645;45.288;12.038;2023-06-10T05:30:27;1010.82646769774;;;21.1408203125;96.07921645113562
61740;BME280;47645;45.288;12.038;2023-06-10T05:40:27;1010.6817853304128;;;21.4466796875;99.46360664524472
61740;BME280;47645;45.288;12.038;2023-06-10T05:50:29;1010.7464842011603;;;21.813671875;100
61740;BME280;47645;45.288;12.038;2023-06-10T06:00:30;1010.6687951805443;;;22.1654296875;95.7262214306724
61740;BME280;47645;45.288;12.038;2023-06-10T06:10:31;1010.6500608423672;;;22.231640625;100
61740;BME280;47645;45.288;12.038;2023-06-10T06:20:32;1010.7096552110577;;;22.4966796875;88.65055278021397
61740;BME280;47645;45.288;12.038;2023-06-10T06:30:34;1010.6782689006952;;;22.86875;87.994178192538
61740;BME280;47645;45.288;12.038;2023-06-10T06:40:35;1010.6817595597821;;;22.970703125;90.81914553829048
61740;BME280;47645;45.288;12.038;2023-06-10T06:50:36;1010.6522790292182;;;23.2255859375;87.32884964098082
61740;BME280;47645;45.288;12.038;2023-06-10T07:00:37;1010.7021216180234;;;23.34296875;94.87118279985783
61740;BME280;47645;45.288;12.038;2023-06-10T07:10:39;1010.7398949803262;;;23.562109375;91.379973789031
61740;BME280;47645;45.288;12.038;2023-06-10T07:20:40;1010.711342395815;;;23.796484375;92.66050377239183
61740;BME280;47645;45.288;12.038;2023-06-10T07:30:41;1010.7957924095016;;;24.39296875;88.95744595093376
61740;BME280;47645;45.288;12.038;2023-06-10T07:40:43;1010.7474823792609;;;24.5712890625;85.89103311469617
61740;BME280;47645;45.288;12.038;2023-06-10T07:50:44;1010.6827269086259;;;25.341015625;81.54291955016855
61740;BME280;47645;45.288;12.038;2023-06-10T08:00:46;1010.7281210418244;;;25.61640625;81.44776478117605
61740;BME280;47645;45.288;12.038;2023-06-10T08:10:47;1010.7507535864248;;;26.0751953125;77.92603539872891
61740;BME280;47645;45.288;12.038;2023-06-10T08:20:48;1010.8101634097825;;;26.1923828125;78.99877712429314
61740;BME280;47645;45.288;12.038;2023-06-10T08:30:50;1010.8639014807687;;;26.3861328125;77.78422322325567
61740;BME280;47645;45.288;12.038;2023-06-10T08:40:55;1010.8835889563748;;;26.9111328125;74.91042587103999
61740;BME280;47645;45.288;12.038;2023-06-10T08:50:54;1010.8710027088441;;;27.757421875;67.02598087158057
61740;BME280;47645;45.288;12.038;2023-06-10T09:00:54;1010.8899934357463;;;27.4412109375;72.43200483040745
61740;BME280;47645;45.288;12.038;2023-06-10T09:10:56;1010.9277786125645;;;26.9365234375;69.66036400616554
61740;BME280;47645;45.288;12.038;2023-06-10T09:20:57;1010.8916580864717;;;26.651171875;70.60032847928211
61740;BME280;47645;45.288;12.038;2023-06-10T09:31:03;1010.880146068634;;;26.340234375;73.89260663764007
61740;BME280;47645;45.288;12.038;2023-06-10T09:41:02;1011.0028451659945;;;25.9681640625;75.42031600801971
61740;BME280;47645;45.288;12.038;2023-06-10T09:51:02;1010.9736003763006;;;26.034375;75.2128733018801
61740;BME280;47645;45.288;12.038;2023-06-10T10:01:05;1010.9927347676286;;;26.223046875;76.91323088274154
61740;BME280;47645;45.288;12.038;2023-06-10T10:11:05;1011.0055396219722;;;26.330078125;73.5534424572409
61740;BME280;47645;45.288;12.038;2023-06-10T10:21:11;1010.9820816930188;;;26.76328125;70.97639645491833
61740;BME280;47645;45.288;12.038;2023-06-10T10:31:08;1010.9893483634484;;;27.0080078125;69.88277143801652
61740;BME280;47645;45.288;12.038;2023-06-10T10:41:09;1010.9442714219463;;;27.048828125;68.8928984337732
61740;BME280;47645;45.288;12.038;2023-06-10T10:51:11;1010.8556969865022;;;27.24765625;68.5932517773924
61740;BME280;47645;45.288;12.038;2023-06-10T11:01:13;1010.8810281197782;;;27.46171875;66.33855828450503
61740;BME280;47645;45.288;12.038;2023-06-10T11:11:25;1010.8087311619701;;;27.884765625;65.37092176248068
61740;BME280;47645;45.288;12.038;2023-06-10T11:21:17;1010.6906648332374;;;28.0427734375;65.39647304114557
61740;BME280;47645;45.288;12.038;2023-06-10T11:31:19;1010.5111393202477;;;28.6392578125;63.03516907673177
61740;BME280;47645;45.288;12.038;2023-06-10T11:41:18;1010.3890937997302;;;28.6595703125;61.87430244709466
61740;BME280;47645;45.288;12.038;2023-06-10T11:51:20;1010.3672876385568;;;28.7666015625;59.867307677538605
61740;BME280;47645;45.288;12.038;2023-06-10T12:01:23;1010.2607209734384;;;28.720703125;60.586720756559934
61740;BME280;47645;45.288;12.038;2023-06-10T12:11:23;1010.1091103847626;;;28.70546875;58.70713396020584
61740;BME280;47645;45.288;12.038;2023-06-10T12:21:24;1010.0348449420344;;;28.5984375;58.2960771416661
61740;BME280;47645;45.288;12.038;2023-06-10T12:31:26;1009.7927587766663;;;28.8890625;58.22581917117597
61740;BME280;47645;45.288;12.038;2023-06-10T12:41:28;1009.8328628594177;;;28.91953125;56.05493445034943
61740;BME280;47645;45.288;12.038;2023-06-10T12:51:30;1009.7783525630522;;;28.80234375;53.62730905337845
61740;BME280;47645;45.288;12.038;2023-06-10T13:01:32;1009.7661131565376;;;28.5677734375;51.58775083640633
61740;BME280;47645;45.288;12.038;2023-06-10T13:11:32;1009.7352066050128;;;28.8482421875;56.558945703073796
61740;BME280;47645;45.288;12.038;2023-06-10T13:21:34;1009.7372479985346;;;28.7666015625;58.11051706187979
61740;BME280;47645;45.288;12.038;2023-06-10T13:31:35;1009.722698542252;;;28.7310546875;57.64384052428193
61740;BME280;47645;45.288;12.038;2023-06-10T13:41:37;1009.7868684476125;;;28.700390625;59.64381656431765
61740;BME280;47645;45.288;12.038;2023-06-10T13:51:39;1009.8480886618765;;;28.9603515625;58.8804364568258
61740;BME280;47645;45.288;12.038;2023-06-10T14:01:41;1009.9238202633949;;;28.4404296875;57.65683839839946
61740;BME280;47645;45.288;12.038;2023-06-10T14:11:42;1010.0422481320712;;;28.49140625;59.321250048461636
61740;BME280;47645;45.288;12.038;2023-06-10T14:21:43;1010.0553923655441;;;29.18984375;58.33578351628958
61740;BME280;47645;45.288;12.038;2023-06-10T14:31:45;1010.0335961723923;;;28.87890625;59.796246931362056
61740;BME280;47645;45.288;12.038;2023-06-10T14:41:46;1010.0795500613085;;;28.9859375;59.57383334389766
61740;BME280;47645;45.288;12.038;2023-06-10T14:51:50;1010.1052056063434;;;29.5109375;55.75299853323386
61740;BME280;47645;45.288;12.038;2023-06-10T15:01:50;1009.8544946258838;;;30.030859375;55.59973158566771
61740;BME280;47645;45.288;12.038;2023-06-10T15:11:51;1009.8238136031792;;;30.0818359375;55.0991183225069
61740;BME280;47645;45.288;12.038;2023-06-10T15:21:53;1009.8061469493872;;;30.734375;54.91391365894322
61740;BME280;47645;45.288;12.038;2023-06-10T15:31:54;1009.7043859848084;;;30.6935546875;54.889039438781175
61740;BME280;47645;45.288;12.038;2023-06-10T15:41:56;1009.502795753731;;;30.1482421875;56.86486084399182
61740;BME280;47645;45.288;12.038;2023-06-10T15:51:58;1009.3688901532993;;;30.0513671875;55.612193356143266
61740;BME280;47645;45.288;12.038;2023-06-10T16:01:59;1009.2740606803651;;;30.3978515625;57.21241340061408
61740;BME280;47645;45.288;12.038;2023-06-10T16:12:01;1009.3042165498856;;;30.0767578125;58.26376717646984
61740;BME280;47645;45.288;12.038;2023-06-10T16:22:03;1009.4382774630877;;;30.234765625;56.85574410015892
61740;BME280;47645;45.288;12.038;2023-06-10T16:32:05;1009.4990483799802;;;30.438671875;55.26181821094245
61740;BME280;47645;45.288;12.038;2023-06-10T16:42:06;1009.6186661576617;;;30.041015625;57.84755803258436
61740;BME280;47645;45.288;12.038;2023-06-10T16:52:07;1009.8098172047128;;;30.1736328125;57.69484484337835
61740;BME280;47645;45.288;12.038;2023-06-10T17:02:09;1010.1022816461153;;;29.7708984375;60.1183304086276
61740;BME280;47645;45.288;12.038;2023-06-10T17:12:11;1010.2130203037748;;;29.6435546875;61.58665842285097
61740;BME280;47645;45.288;12.038;2023-06-10T17:22:12;1010.3225738669788;;;28.6544921875;58.11820001331231
61740;BME280;47645;45.288;12.038;2023-06-10T17:32:13;1009.9508445817177;;;27.991796875;66.00760638925036
61740;BME280;47645;45.288;12.038;2023-06-10T17:42:15;1010.3049486291437;;;27.8439453125;59.3763130857242
61740;BME280;47645;45.288;12.038;2023-06-10T17:52:16;1010.2501761274648;;;27.7470703125;66.91566228564614
61740;BME280;47645;45.288;12.038;2023-06-10T18:02:18;1010.2452912491909;;;27.0947265625;69.24309281020716
61740;BME280;47645;45.288;12.038;2023-06-10T18:12:19;1010.0826377637608;;;26.7734375;69.33822423934036
61740;BME280;47645;45.288;12.038;2023-06-10T18:22:21;1010.2240292927808;;;26.0802734375;72.36120734945526
61740;BME280;47645;45.288;12.038;2023-06-10T18:32:22;1009.9979877648911;;;25.7080078125;75.92975253834446
61740;BME280;47645;45.288;12.038;2023-06-10T18:42:23;1009.8945377925725;;;25.65703125;76.50634792528652
61740;BME280;47645;45.288;12.038;2023-06-10T18:52:26;1009.8479856172432;;;25.3970703125;77.24391738388124
61740;BME280;47645;45.288;12.038;2023-06-10T19:02:26;1009.9250802787027;;;25.126953125;75.59117476228631
61740;BME280;47645;45.288;12.038;2023-06-10T19:12:27;1010.1210018357273;;;24.9638671875;78.49462074493117
61740;BME280;47645;45.288;12.038;2023-06-10T19:22:29;1010.7191636200738;;;23.7099609375;77.7637783665426
61740;BME280;47645;45.288;12.038;2023-06-10T19:32:30;1010.8747526945964;;;22.43046875;87.89282939091454
61740;BME280;47645;45.288;12.038;2023-06-10T19:42:31;1011.0940016528434;;;22.52734375;88.93082630262009
61740;BME280;47645;45.288;12.038;2023-06-10T19:52:33;1011.3427173322211;;;21.8953125;89.62966280480792
61740;BME280;47645;45.288;12.038;2023-06-10T20:02:34;1011.633427362338;;;21.900390625;90.23760324569865
61740;BME280;47645;45.288;12.038;2023-06-10T20:12:35;1011.7243493587214;;;21.2275390625;93.63576330518092
61740;BME280;47645;45.288;12.038;2023-06-10T20:22:36;1011.7259955328485;;;21.5486328125;93.425551456719
61740;BME280;47645;45.288;12.038;2023-06-10T20:32:38;1011.5802015447287;;;21.5689453125;91.4152014057479
61740;BME280;47645;45.288;12.038;2023-06-10T20:42:39;1011.5489925281645;;;22.35390625;88.83866093846079
61740;BME280;47645;45.288;12.038;2023-06-10T20:52:40;1011.4860674094755;;;22.1296875;88.0927211260308
61740;BME280;47645;45.288;12.038;2023-06-10T21:02:42;1011.3204139116029;;;22.34375;87.91149024373047
61740;BME280;47645;45.288;12.038;2023-06-10T21:12:43;1011.3539622472447;;;21.9767578125;89.36781294149574
61740;BME280;47645;45.288;12.038;2023-06-10T21:22:44;1011.349148488955;;;22.109375;89.18981082924572
61740;BME280;47645;45.288;12.038;2023-06-10T21:32:46;1011.3254987367991;;;22.017578125;90.13775601690432
61740;BME280;47645;45.288;12.038;2023-06-10T21:42:47;1011.2280091123564;;;21.1357421875;98.114142411933
61740;BME280;47645;45.288;12.038;2023-06-10T21:52:48;1011.2944773056292;;;21.2478515625;94.35532958726108
61740;BME280;47645;45.288;12.038;2023-06-10T22:02:49;1011.4435789816712;;;21.2275390625;98.7033393070779
61740;BME280;47645;45.288;12.038;2023-06-10T22:12:51;1011.3381753499108;;;21.06953125;96.82427491768199
61740;BME280;47645;45.288;12.038;2023-06-10T22:22:52;1011.2687682223087;;;21.278515625;94.83073918822939
61740;BME280;47645;45.288;12.038;2023-06-10T22:32:53;1011.2516736616329;;;20.6921875;100
61740;BME280;47645;45.288;12.038;2023-06-10T22:42:54;1011.190117864524;;;20.473046875;100
61740;BME280;47645;45.288;12.038;2023-06-10T22:52:55;1011.0864561902372;;;20.569921875;100
61740;BME280;47645;45.288;12.038;2023-06-10T23:02:57;1011.033996606204;;;20.1724609375;100
61740;BME280;47645;45.288;12.038;2023-06-10T23:12:58;1010.8952662938758;;;20.0806640625;100
61740;BME280;47645;45.288;12.038;2023-06-10T23:23:01;1010.8786060318282;;;20.478125;97.97481531456859
61740;BME280;47645;45.288;12.038;2023-06-10T23:33:00;1010.9612515514043;;;20.646484375;99.44556223749548
61740;BME280;47645;45.288;12.038;2023-06-10T23:43:01;1010.948479267307;;;20.0857421875;100
61740;BME280;47645;45.288;12.038;2023-06-10T23:53:03;1010.9602049190322;;;20.559765625;95.05839323505923
